sensor_id;sensor_type;location;lat;lon;timestamp;P1;durP1;ratioP1;P2;durP2;ratioP2
65289;SDS011;51893;59.754;10.110;2022-12-11T00:00:56;9.00;;;4.00;;
65289;SDS011;51893;59.754;10.110;2022-12-11T00:03:40;3.20;;;2.50;;
65289;SDS011;51893;59.754;10.110;2022-12-11T00:06:13;9.50;;;4.20;;
65289;SDS011;51893;59.754;10.110;2022-12-11T00:08:43;7.30;;;4.10;;
65289;SDS011;51893;59.754;10.110;2022-12-11T00:11:15;15.80;;;3.50;;
65289;SDS011;51893;59.754;10.110;2022-12-11T00:13:42;10.80;;;4.40;;
65289;SDS011;51893;59.754;10.110;2022-12-11T00:16:10;8.60;;;4.10;;
65289;SDS011;51893;59.754;10.110;2022-12-11T00:18:38;13.10;;;4.60;;
65289;SDS011;51893;59.754;10.110;2022-12-11T00:21:09;6.60;;;3.40;;
65289;SDS011;51893;59.754;10.110;2022-12-11T00:23:39;3.40;;;2.60;;
65289;SDS011;51893;59.754;10.110;2022-12-11T00:26:09;14.70;;;4.80;;
65289;SDS011;51893;59.754;10.110;2022-12-11T00:28:38;9.10;;;3.60;;
65289;SDS011;51893;59.754;10.110;2022-12-11T00:31:12;0.80;;;0.80;;
65289;SDS011;51893;59.754;10.110;2022-12-11T00:36:14;6.00;;;2.80;;
65289;SDS011;51893;59.754;10.110;2022-12-11T00:38:43;8.70;;;4.20;;
65289;SDS011;51893;59.754;10.110;2022-12-11T00:41:10;18.40;;;7.30;;
65289;SDS011;51893;59.754;10.110;2022-12-11T00:43:38;14.20;;;6.50;;
65289;SDS011;51893;59.754;10.110;2022-12-11T00:46:05;7.70;;;4.20;;
65289;SDS011;51893;59.754;10.110;2022-12-11T00:48:34;10.80;;;4.00;;
65289;SDS011;51893;59.754;10.110;2022-12-11T00:51:01;15.70;;;4.30;;
65289;SDS011;51893;59.754;10.110;2022-12-11T00:53:31;6.60;;;4.40;;
65289;SDS011;51893;59.754;10.110;2022-12-11T00:56:00;13.00;;;5.20;;
65289;SDS011;51893;59.754;10.110;2022-12-11T00:58:26;8.70;;;3.70;;
65289;SDS011;51893;59.754;10.110;2022-12-11T01:00:53;9.60;;;4.30;;
65289;SDS011;51893;59.754;10.110;2022-12-11T01:03:21;10.40;;;4.00;;
65289;SDS011;51893;59.754;10.110;2022-12-11T01:05:53;4.90;;;3.10;;
65289;SDS011;51893;59.754;10.110;2022-12-11T01:08:20;6.00;;;3.30;;
65289;SDS011;51893;59.754;10.110;2022-12-11T01:10:47;10.20;;;3.80;;
65289;SDS011;51893;59.754;10.110;2022-12-11T01:13:14;12.40;;;4.80;;
65289;SDS011;51893;59.754;10.110;2022-12-11T01:15:43;7.90;;;3.60;;
65289;SDS011;51893;59.754;10.110;2022-12-11T01:18:12;6.60;;;3.50;;
65289;SDS011;51893;59.754;10.110;2022-12-11T01:20:40;8.40;;;4.20;;
65289;SDS011;51893;59.754;10.110;2022-12-11T01:23:11;6.00;;;3.60;;
65289;SDS011;51893;59.754;10.110;2022-12-11T01:25:39;7.70;;;4.20;;
65289;SDS011;51893;59.754;10.110;2022-12-11T01:28:06;6.60;;;3.00;;
65289;SDS011;51893;59.754;10.110;2022-12-11T01:30:35;4.80;;;3.20;;
65289;SDS011;51893;59.754;10.110;2022-12-11T01:33:01;6.70;;;2.90;;
65289;SDS011;51893;59.754;10.110;2022-12-11T01:35:29;2.80;;;1.60;;
65289;SDS011;51893;59.754;10.110;2022-12-11T01:37:57;4.40;;;2.90;;
65289;SDS011;51893;59.754;10.110;2022-12-11T01:40:24;5.40;;;3.80;;
65289;SDS011;51893;59.754;10.110;2022-12-11T01:42:51;6.60;;;3.20;;
65289;SDS011;51893;59.754;10.110;2022-12-11T01:45:38;7.90;;;3.10;;
65289;SDS011;51893;59.754;10.110;2022-12-11T01:48:10;8.00;;;3.40;;
65289;SDS011;51893;59.754;10.110;2022-12-11T01:50:57;8.40;;;3.60;;
65289;SDS011;51893;59.754;10.110;2022-12-11T01:53:30;8.10;;;3.20;;
65289;SDS011;51893;59.754;10.110;2022-12-11T01:56:01;2.50;;;1.10;;
65289;SDS011;51893;59.754;10.110;2022-12-11T01:58:36;2.70;;;1.80;;
65289;SDS011;51893;59.754;10.110;2022-12-11T02:01:09;3.50;;;1.60;;
65289;SDS011;51893;59.754;10.110;2022-12-11T02:03:43;4.90;;;2.90;;
65289;SDS011;51893;59.754;10.110;2022-12-11T02:06:37;4.50;;;2.90;;
65289;SDS011;51893;59.754;10.110;2022-12-11T02:09:10;6.90;;;3.00;;
65289;SDS011;51893;59.754;10.110;2022-12-11T02:17:31;5.90;;;2.80;;
65289;SDS011;51893;59.754;10.110;2022-12-11T02:20:11;4.70;;;2.50;;
65289;SDS011;51893;59.754;10.110;2022-12-11T02:28:34;3.30;;;1.80;;
65289;SDS011;51893;59.754;10.110;2022-12-11T02:37:42;4.90;;;2.90;;
65289;SDS011;51893;59.754;10.110;2022-12-11T02:40:14;4.20;;;2.20;;
65289;SDS011;51893;59.754;10.110;2022-12-11T02:42:46;1.10;;;1.00;;
65289;SDS011;51893;59.754;10.110;2022-12-11T02:45:16;4.30;;;2.50;;
65289;SDS011;51893;59.754;10.110;2022-12-11T02:47:47;1.40;;;0.90;;
65289;SDS011;51893;59.754;10.110;2022-12-11T02:50:17;6.80;;;2.50;;
65289;SDS011;51893;59.754;10.110;2022-12-11T02:52:47;3.00;;;1.70;;
65289;SDS011;51893;59.754;10.110;2022-12-11T02:55:17;7.90;;;3.20;;
65289;SDS011;51893;59.754;10.110;2022-12-11T02:57:48;9.00;;;2.10;;
65289;SDS011;51893;59.754;10.110;2022-12-11T03:00:19;3.20;;;1.90;;
65289;SDS011;51893;59.754;10.110;2022-12-11T03:02:47;11.00;;;3.00;;
65289;SDS011;51893;59.754;10.110;2022-12-11T03:05:14;3.70;;;2.50;;
65289;SDS011;51893;59.754;10.110;2022-12-11T03:07:42;0.90;;;0.90;;
65289;SDS011;51893;59.754;10.110;2022-12-11T03:10:13;1.60;;;1.50;;
65289;SDS011;51893;59.754;10.110;2022-12-11T03:12:46;5.10;;;2.20;;
65289;SDS011;51893;59.754;10.110;2022-12-11T03:15:22;4.30;;;2.00;;
65289;SDS011;51893;59.754;10.110;2022-12-11T03:18:11;4.10;;;2.50;;
65289;SDS011;51893;59.754;10.110;2022-12-11T03:21:07;4.80;;;2.20;;
65289;SDS011;51893;59.754;10.110;2022-12-11T03:23:49;5.90;;;2.10;;
65289;SDS011;51893;59.754;10.110;2022-12-11T03:26:25;3.10;;;1.90;;
65289;SDS011;51893;59.754;10.110;2022-12-11T03:29:06;2.60;;;1.70;;
65289;SDS011;51893;59.754;10.110;2022-12-11T03:32:13;3.00;;;2.10;;
65289;SDS011;51893;59.754;10.110;2022-12-11T03:35:13;2.70;;;1.70;;
65289;SDS011;51893;59.754;10.110;2022-12-11T03:37:49;2.10;;;1.70;;
65289;SDS011;51893;59.754;10.110;2022-12-11T03:40:20;2.80;;;1.90;;
65289;SDS011;51893;59.754;10.110;2022-12-11T03:42:51;1.70;;;1.60;;
65289;SDS011;51893;59.754;10.110;2022-12-11T03:45:23;1.80;;;1.40;;
65289;SDS011;51893;59.754;10.110;2022-12-11T03:47:53;2.00;;;1.70;;
65289;SDS011;51893;59.754;10.110;2022-12-11T03:50:25;3.60;;;2.10;;
65289;SDS011;51893;59.754;10.110;2022-12-11T03:52:57;1.50;;;1.20;;
65289;SDS011;51893;59.754;10.110;2022-12-11T03:55:27;6.00;;;1.90;;
65289;SDS011;51893;59.754;10.110;2022-12-11T03:57:55;1.80;;;1.40;;
65289;SDS011;51893;59.754;10.110;2022-12-11T04:00:22;2.00;;;1.70;;
65289;SDS011;51893;59.754;10.110;2022-12-11T04:02:49;2.80;;;1.80;;
65289;SDS011;51893;59.754;10.110;2022-12-11T04:05:41;2.10;;;1.50;;
65289;SDS011;51893;59.754;10.110;2022-12-11T04:08:18;4.40;;;1.80;;
65289;SDS011;51893;59.754;10.110;2022-12-11T04:10:49;1.60;;;1.30;;
65289;SDS011;51893;59.754;10.110;2022-12-11T04:13:36;7.00;;;2.10;;
65289;SDS011;51893;59.754;10.110;2022-12-11T04:16:03;3.50;;;2.10;;
65289;SDS011;51893;59.754;10.110;2022-12-11T04:18:30;4.50;;;1.50;;
65289;SDS011;51893;59.754;10.110;2022-12-11T04:21:15;2.30;;;1.80;;
65289;SDS011;51893;59.754;10.110;2022-12-11T04:24:06;2.70;;;1.70;;
65289;SDS011;51893;59.754;10.110;2022-12-11T04:26:45;2.30;;;1.80;;
65289;SDS011;51893;59.754;10.110;2022-12-11T04:29:14;2.50;;;1.80;;
65289;SDS011;51893;59.754;10.110;2022-12-11T04:31:48;4.10;;;1.80;;
65289;SDS011;51893;59.754;10.110;2022-12-11T04:34:16;2.70;;;1.90;;
65289;SDS011;51893;59.754;10.110;2022-12-11T04:36:43;3.50;;;1.60;;
65289;SDS011;51893;59.754;10.110;2022-12-11T04:39:10;4.10;;;1.90;;
65289;SDS011;51893;59.754;10.110;2022-12-11T04:41:37;2.50;;;1.90;;
65289;SDS011;51893;59.754;10.110;2022-12-11T04:44:04;3.10;;;1.40;;
65289;SDS011;51893;59.754;10.110;2022-12-11T04:46:31;4.00;;;1.70;;
65289;SDS011;51893;59.754;10.110;2022-12-11T04:48:58;4.10;;;1.90;;
65289;SDS011;51893;59.754;10.110;2022-12-11T04:51:27;3.70;;;1.60;;
65289;SDS011;51893;59.754;10.110;2022-12-11T04:53:55;2.70;;;1.90;;
65289;SDS011;51893;59.754;10.110;2022-12-11T04:56:23;2.80;;;1.60;;
65289;SDS011;51893;59.754;10.110;2022-12-11T04:58:50;4.60;;;1.60;;
65289;SDS011;51893;59.754;10.110;2022-12-11T05:01:21;1.30;;;0.80;;
65289;SDS011;51893;59.754;10.110;2022-12-11T05:03:49;1.30;;;1.20;;
65289;SDS011;51893;59.754;10.110;2022-12-11T05:06:15;3.20;;;1.40;;
65289;SDS011;51893;59.754;10.110;2022-12-11T05:08:43;1.90;;;1.50;;
65289;SDS011;51893;59.754;10.110;2022-12-11T05:11:13;2.50;;;1.20;;
65289;SDS011;51893;59.754;10.110;2022-12-11T05:13:44;2.50;;;2.10;;
65289;SDS011;51893;59.754;10.110;2022-12-11T05:16:14;2.70;;;2.10;;
65289;SDS011;51893;59.754;10.110;2022-12-11T05:18:42;2.80;;;2.10;;
65289;SDS011;51893;59.754;10.110;2022-12-11T05:21:12;3.50;;;2.10;;
65289;SDS011;51893;59.754;10.110;2022-12-11T05:23:41;2.10;;;1.80;;
65289;SDS011;51893;59.754;10.110;2022-12-11T05:26:12;3.60;;;1.90;;
65289;SDS011;51893;59.754;10.110;2022-12-11T05:28:42;3.50;;;2.30;;
65289;SDS011;51893;59.754;10.110;2022-12-11T05:31:19;3.90;;;2.30;;
65289;SDS011;51893;59.754;10.110;2022-12-11T05:33:49;3.70;;;2.60;;
65289;SDS011;51893;59.754;10.110;2022-12-11T05:38:54;2.50;;;1.50;;
65289;SDS011;51893;59.754;10.110;2022-12-11T05:41:29;4.50;;;2.70;;
65289;SDS011;51893;59.754;10.110;2022-12-11T05:43:58;3.50;;;1.90;;
65289;SDS011;51893;59.754;10.110;2022-12-11T05:46:27;4.20;;;2.30;;
65289;SDS011;51893;59.754;10.110;2022-12-11T05:48:58;4.40;;;2.30;;
65289;SDS011;51893;59.754;10.110;2022-12-11T05:51:27;4.70;;;2.60;;
65289;SDS011;51893;59.754;10.110;2022-12-11T05:53:57;5.20;;;2.40;;
65289;SDS011;51893;59.754;10.110;2022-12-11T05:56:26;10.00;;;5.10;;
65289;SDS011;51893;59.754;10.110;2022-12-11T05:58:56;10.20;;;4.90;;
65289;SDS011;51893;59.754;10.110;2022-12-11T06:03:57;7.30;;;4.40;;
65289;SDS011;51893;59.754;10.110;2022-12-11T06:06:26;6.90;;;3.10;;
65289;SDS011;51893;59.754;10.110;2022-12-11T06:08:55;6.80;;;2.70;;
65289;SDS011;51893;59.754;10.110;2022-12-11T06:11:24;5.10;;;2.00;;
65289;SDS011;51893;59.754;10.110;2022-12-11T06:13:57;7.30;;;2.80;;
65289;SDS011;51893;59.754;10.110;2022-12-11T06:16:25;2.40;;;1.70;;
65289;SDS011;51893;59.754;10.110;2022-12-11T06:18:52;6.70;;;2.30;;
65289;SDS011;51893;59.754;10.110;2022-12-11T06:21:25;1.30;;;1.10;;
65289;SDS011;51893;59.754;10.110;2022-12-11T06:23:55;3.70;;;2.20;;
65289;SDS011;51893;59.754;10.110;2022-12-11T06:26:24;3.40;;;2.60;;
65289;SDS011;51893;59.754;10.110;2022-12-11T06:28:52;1.70;;;1.60;;
65289;SDS011;51893;59.754;10.110;2022-12-11T06:31:19;4.70;;;2.30;;
65289;SDS011;51893;59.754;10.110;2022-12-11T06:33:47;2.00;;;1.60;;
65289;SDS011;51893;59.754;10.110;2022-12-11T06:36:19;1.10;;;1.10;;
65289;SDS011;51893;59.754;10.110;2022-12-11T06:38:49;4.10;;;2.50;;
65289;SDS011;51893;59.754;10.110;2022-12-11T06:41:17;5.00;;;2.30;;
65289;SDS011;51893;59.754;10.110;2022-12-11T06:43:46;4.70;;;2.70;;
65289;SDS011;51893;59.754;10.110;2022-12-11T06:46:14;3.10;;;1.90;;
65289;SDS011;51893;59.754;10.110;2022-12-11T06:48:44;4.20;;;2.60;;
65289;SDS011;51893;59.754;10.110;2022-12-11T06:51:14;5.90;;;2.50;;
65289;SDS011;51893;59.754;10.110;2022-12-11T06:56:18;1.60;;;1.20;;
65289;SDS011;51893;59.754;10.110;2022-12-11T06:58:46;1.60;;;1.40;;
65289;SDS011;51893;59.754;10.110;2022-12-11T07:01:21;3.20;;;2.00;;
65289;SDS011;51893;59.754;10.110;2022-12-11T07:03:51;3.50;;;1.80;;
65289;SDS011;51893;59.754;10.110;2022-12-11T07:06:20;1.90;;;1.70;;
65289;SDS011;51893;59.754;10.110;2022-12-11T07:08:47;1.70;;;1.60;;
65289;SDS011;51893;59.754;10.110;2022-12-11T07:11:15;4.10;;;2.70;;
65289;SDS011;51893;59.754;10.110;2022-12-11T07:13:44;14.50;;;5.60;;
65289;SDS011;51893;59.754;10.110;2022-12-11T07:16:14;8.10;;;3.50;;
65289;SDS011;51893;59.754;10.110;2022-12-11T07:18:46;2.70;;;2.00;;
65289;SDS011;51893;59.754;10.110;2022-12-11T07:21:15;2.80;;;1.70;;
65289;SDS011;51893;59.754;10.110;2022-12-11T07:23:45;2.90;;;2.10;;
65289;SDS011;51893;59.754;10.110;2022-12-11T07:26:17;1.80;;;0.70;;
65289;SDS011;51893;59.754;10.110;2022-12-11T07:28:47;1.40;;;1.20;;
65289;SDS011;51893;59.754;10.110;2022-12-11T07:31:18;1.30;;;1.20;;
65289;SDS011;51893;59.754;10.110;2022-12-11T07:34:00;2.40;;;1.90;;
65289;SDS011;51893;59.754;10.110;2022-12-11T07:36:32;4.20;;;2.70;;
65289;SDS011;51893;59.754;10.110;2022-12-11T07:39:00;3.70;;;1.60;;
65289;SDS011;51893;59.754;10.110;2022-12-11T07:41:28;1.80;;;1.60;;
65289;SDS011;51893;59.754;10.110;2022-12-11T07:43:55;4.20;;;2.70;;
65289;SDS011;51893;59.754;10.110;2022-12-11T07:46:25;6.60;;;2.80;;
65289;SDS011;51893;59.754;10.110;2022-12-11T07:48:55;5.30;;;3.00;;
65289;SDS011;51893;59.754;10.110;2022-12-11T07:51:27;6.70;;;4.20;;
65289;SDS011;51893;59.754;10.110;2022-12-11T07:54:05;3.80;;;3.20;;
65289;SDS011;51893;59.754;10.110;2022-12-11T07:56:46;2.50;;;1.80;;
65289;SDS011;51893;59.754;10.110;2022-12-11T07:59:19;2.50;;;1.80;;
65289;SDS011;51893;59.754;10.110;2022-12-11T08:01:46;7.70;;;3.60;;
65289;SDS011;51893;59.754;10.110;2022-12-11T08:04:16;2.60;;;1.70;;
65289;SDS011;51893;59.754;10.110;2022-12-11T08:06:43;1.50;;;1.30;;
65289;SDS011;51893;59.754;10.110;2022-12-11T08:09:12;1.60;;;1.40;;
65289;SDS011;51893;59.754;10.110;2022-12-11T08:11:50;1.70;;;1.50;;
65289;SDS011;51893;59.754;10.110;2022-12-11T08:14:18;1.70;;;1.60;;
65289;SDS011;51893;59.754;10.110;2022-12-11T08:16:46;5.90;;;2.40;;
65289;SDS011;51893;59.754;10.110;2022-12-11T08:19:16;3.60;;;2.60;;
65289;SDS011;51893;59.754;10.110;2022-12-11T08:21:43;3.80;;;2.50;;
65289;SDS011;51893;59.754;10.110;2022-12-11T08:24:10;1.70;;;1.50;;
65289;SDS011;51893;59.754;10.110;2022-12-11T08:26:36;4.20;;;2.10;;
65289;SDS011;51893;59.754;10.110;2022-12-11T08:29:04;3.30;;;1.40;;
65289;SDS011;51893;59.754;10.110;2022-12-11T08:31:31;1.70;;;1.60;;
65289;SDS011;51893;59.754;10.110;2022-12-11T08:33:58;1.90;;;1.30;;
65289;SDS011;51893;59.754;10.110;2022-12-11T08:36:26;1.40;;;1.30;;
65289;SDS011;51893;59.754;10.110;2022-12-11T08:38:55;2.40;;;1.40;;
65289;SDS011;51893;59.754;10.110;2022-12-11T08:41:26;3.10;;;1.60;;
65289;SDS011;51893;59.754;10.110;2022-12-11T08:43:57;1.10;;;1.00;;
65289;SDS011;51893;59.754;10.110;2022-12-11T08:46:27;1.10;;;1.00;;
65289;SDS011;51893;59.754;10.110;2022-12-11T08:48:57;2.00;;;1.50;;
65289;SDS011;51893;59.754;10.110;2022-12-11T08:51:26;3.00;;;2.10;;
65289;SDS011;51893;59.754;10.110;2022-12-11T08:53:55;2.50;;;2.10;;
65289;SDS011;51893;59.754;10.110;2022-12-11T08:56:24;3.50;;;2.10;;
65289;SDS011;51893;59.754;10.110;2022-12-11T08:58:54;3.10;;;1.70;;
65289;SDS011;51893;59.754;10.110;2022-12-11T09:01:24;2.20;;;1.90;;
65289;SDS011;51893;59.754;10.110;2022-12-11T09:03:54;2.40;;;1.80;;
65289;SDS011;51893;59.754;10.110;2022-12-11T09:06:23;2.50;;;1.90;;
65289;SDS011;51893;59.754;10.110;2022-12-11T09:08:54;2.60;;;1.90;;
65289;SDS011;51893;59.754;10.110;2022-12-11T09:11:27;1.90;;;1.60;;
65289;SDS011;51893;59.754;10.110;2022-12-11T09:13:56;1.70;;;1.10;;
65289;SDS011;51893;59.754;10.110;2022-12-11T09:16:28;1.60;;;1.50;;
65289;SDS011;51893;59.754;10.110;2022-12-11T09:18:57;1.30;;;0.90;;
65289;SDS011;51893;59.754;10.110;2022-12-11T09:21:28;4.80;;;1.40;;
65289;SDS011;51893;59.754;10.110;2022-12-11T09:23:58;1.70;;;1.30;;
65289;SDS011;51893;59.754;10.110;2022-12-11T09:26:27;3.60;;;2.20;;
65289;SDS011;51893;59.754;10.110;2022-12-11T09:28:57;1.10;;;1.10;;
65289;SDS011;51893;59.754;10.110;2022-12-11T09:31:25;2.80;;;2.60;;
65289;SDS011;51893;59.754;10.110;2022-12-11T09:33:55;1.40;;;1.10;;
65289;SDS011;51893;59.754;10.110;2022-12-11T09:36:24;2.50;;;1.90;;
65289;SDS011;51893;59.754;10.110;2022-12-11T09:38:51;4.10;;;2.10;;
65289;SDS011;51893;59.754;10.110;2022-12-11T09:44:16;6.10;;;2.30;;
65289;SDS011;51893;59.754;10.110;2022-12-11T09:46:46;2.20;;;1.60;;
65289;SDS011;51893;59.754;10.110;2022-12-11T09:50:01;3.30;;;2.00;;
65289;SDS011;51893;59.754;10.110;2022-12-11T09:52:30;2.80;;;2.30;;
65289;SDS011;51893;59.754;10.110;2022-12-11T09:55:12;3.80;;;2.40;;
65289;SDS011;51893;59.754;10.110;2022-12-11T09:57:58;6.70;;;2.20;;
65289;SDS011;51893;59.754;10.110;2022-12-11T10:00:47;6.30;;;2.50;;
65289;SDS011;51893;59.754;10.110;2022-12-11T10:09:37;4.30;;;2.70;;
65289;SDS011;51893;59.754;10.110;2022-12-11T10:19:03;4.80;;;2.70;;
65289;SDS011;51893;59.754;10.110;2022-12-11T10:21:37;8.00;;;2.90;;
65289;SDS011;51893;59.754;10.110;2022-12-11T10:24:27;3.20;;;1.50;;
65289;SDS011;51893;59.754;10.110;2022-12-11T10:27:27;5.00;;;2.10;;
65289;SDS011;51893;59.754;10.110;2022-12-11T10:33:25;2.80;;;1.30;;
65289;SDS011;51893;59.754;10.110;2022-12-11T10:35:54;1.80;;;1.60;;
65289;SDS011;51893;59.754;10.110;2022-12-11T10:38:30;3.40;;;2.40;;
65289;SDS011;51893;59.754;10.110;2022-12-11T10:41:04;2.40;;;1.70;;
65289;SDS011;51893;59.754;10.110;2022-12-11T10:43:37;2.50;;;1.30;;
65289;SDS011;51893;59.754;10.110;2022-12-11T10:46:20;1.60;;;1.50;;
65289;SDS011;51893;59.754;10.110;2022-12-11T10:48:54;3.90;;;2.50;;
65289;SDS011;51893;59.754;10.110;2022-12-11T10:51:25;4.40;;;2.30;;
65289;SDS011;51893;59.754;10.110;2022-12-11T10:54:30;2.00;;;1.80;;
65289;SDS011;51893;59.754;10.110;2022-12-11T10:57:01;5.40;;;3.20;;
65289;SDS011;51893;59.754;10.110;2022-12-11T10:59:43;5.80;;;1.90;;
65289;SDS011;51893;59.754;10.110;2022-12-11T11:02:34;5.00;;;3.30;;
65289;SDS011;51893;59.754;10.110;2022-12-11T11:05:16;7.80;;;2.70;;
65289;SDS011;51893;59.754;10.110;2022-12-11T11:10:56;4.90;;;3.10;;
65289;SDS011;51893;59.754;10.110;2022-12-11T11:13:30;6.60;;;3.60;;
65289;SDS011;51893;59.754;10.110;2022-12-11T11:16:05;11.90;;;6.30;;
65289;SDS011;51893;59.754;10.110;2022-12-11T11:18:38;8.90;;;5.10;;
65289;SDS011;51893;59.754;10.110;2022-12-11T11:21:15;16.30;;;5.50;;
65289;SDS011;51893;59.754;10.110;2022-12-11T11:23:45;16.80;;;4.80;;
65289;SDS011;51893;59.754;10.110;2022-12-11T11:26:21;3.50;;;2.50;;
65289;SDS011;51893;59.754;10.110;2022-12-11T11:28:55;11.60;;;4.20;;
65289;SDS011;51893;59.754;10.110;2022-12-11T11:31:33;2.80;;;1.60;;
65289;SDS011;51893;59.754;10.110;2022-12-11T11:34:06;2.40;;;1.40;;
65289;SDS011;51893;59.754;10.110;2022-12-11T11:36:37;1.70;;;1.60;;
65289;SDS011;51893;59.754;10.110;2022-12-11T11:39:27;2.90;;;2.10;;
65289;SDS011;51893;59.754;10.110;2022-12-11T11:42:24;1.00;;;1.00;;
65289;SDS011;51893;59.754;10.110;2022-12-11T11:45:10;6.90;;;3.70;;
65289;SDS011;51893;59.754;10.110;2022-12-11T11:47:50;4.20;;;2.70;;
65289;SDS011;51893;59.754;10.110;2022-12-11T11:50:30;3.70;;;2.00;;
65289;SDS011;51893;59.754;10.110;2022-12-11T11:53:09;12.90;;;4.90;;
65289;SDS011;51893;59.754;10.110;2022-12-11T11:58:46;4.70;;;2.80;;
65289;SDS011;51893;59.754;10.110;2022-12-11T12:03:54;4.00;;;2.40;;
65289;SDS011;51893;59.754;10.110;2022-12-11T12:21:48;7.30;;;3.70;;
65289;SDS011;51893;59.754;10.110;2022-12-11T12:24:38;4.40;;;3.20;;
65289;SDS011;51893;59.754;10.110;2022-12-11T12:27:35;5.70;;;2.40;;
65289;SDS011;51893;59.754;10.110;2022-12-11T12:30:21;4.50;;;2.50;;
65289;SDS011;51893;59.754;10.110;2022-12-11T12:36:05;3.70;;;2.80;;
65289;SDS011;51893;59.754;10.110;2022-12-11T12:39:10;3.10;;;2.30;;
65289;SDS011;51893;59.754;10.110;2022-12-11T12:42:29;2.40;;;1.30;;
65289;SDS011;51893;59.754;10.110;2022-12-11T12:45:32;4.40;;;1.90;;
65289;SDS011;51893;59.754;10.110;2022-12-11T12:48:09;4.80;;;2.80;;
65289;SDS011;51893;59.754;10.110;2022-12-11T12:50:42;4.70;;;2.80;;
65289;SDS011;51893;59.754;10.110;2022-12-11T12:53:26;5.20;;;2.60;;
65289;SDS011;51893;59.754;10.110;2022-12-11T12:56:00;4.00;;;3.20;;
65289;SDS011;51893;59.754;10.110;2022-12-11T13:01:09;3.20;;;2.30;;
65289;SDS011;51893;59.754;10.110;2022-12-11T13:06:53;3.20;;;2.40;;
65289;SDS011;51893;59.754;10.110;2022-12-11T13:09:25;3.60;;;3.00;;
65289;SDS011;51893;59.754;10.110;2022-12-11T13:11:57;4.90;;;2.90;;
65289;SDS011;51893;59.754;10.110;2022-12-11T13:14:30;3.60;;;2.50;;
65289;SDS011;51893;59.754;10.110;2022-12-11T13:19:48;5.00;;;2.20;;
65289;SDS011;51893;59.754;10.110;2022-12-11T13:22:22;4.10;;;2.40;;
65289;SDS011;51893;59.754;10.110;2022-12-11T13:24:59;3.80;;;2.20;;
65289;SDS011;51893;59.754;10.110;2022-12-11T13:27:41;2.50;;;2.20;;
65289;SDS011;51893;59.754;10.110;2022-12-11T13:32:54;6.60;;;3.50;;
65289;SDS011;51893;59.754;10.110;2022-12-11T13:35:28;7.70;;;3.10;;
65289;SDS011;51893;59.754;10.110;2022-12-11T13:38:18;4.70;;;2.60;;
65289;SDS011;51893;59.754;10.110;2022-12-11T13:40:53;4.10;;;2.80;;
65289;SDS011;51893;59.754;10.110;2022-12-11T13:45:57;1.70;;;1.60;;
65289;SDS011;51893;59.754;10.110;2022-12-11T13:51:21;10.00;;;5.00;;
65289;SDS011;51893;59.754;10.110;2022-12-11T13:54:19;8.20;;;4.00;;
65289;SDS011;51893;59.754;10.110;2022-12-11T13:59:37;6.10;;;2.80;;
65289;SDS011;51893;59.754;10.110;2022-12-11T14:02:30;3.00;;;1.70;;
65289;SDS011;51893;59.754;10.110;2022-12-11T14:05:08;2.60;;;2.00;;
65289;SDS011;51893;59.754;10.110;2022-12-11T14:07:41;8.90;;;4.00;;
65289;SDS011;51893;59.754;10.110;2022-12-11T14:10:30;18.60;;;6.80;;
65289;SDS011;51893;59.754;10.110;2022-12-11T14:15:25;13.30;;;4.90;;
65289;SDS011;51893;59.754;10.110;2022-12-11T14:17:56;10.80;;;4.30;;
65289;SDS011;51893;59.754;10.110;2022-12-11T14:20:29;12.50;;;4.50;;
65289;SDS011;51893;59.754;10.110;2022-12-11T14:23:27;19.20;;;7.50;;
65289;SDS011;51893;59.754;10.110;2022-12-11T14:26:22;10.50;;;5.40;;
65289;SDS011;51893;59.754;10.110;2022-12-11T14:28:55;4.90;;;2.00;;
65289;SDS011;51893;59.754;10.110;2022-12-11T14:31:36;9.70;;;3.80;;
65289;SDS011;51893;59.754;10.110;2022-12-11T14:34:20;3.90;;;2.40;;
65289;SDS011;51893;59.754;10.110;2022-12-11T14:36:56;5.80;;;3.50;;
65289;SDS011;51893;59.754;10.110;2022-12-11T14:39:34;3.90;;;2.40;;
65289;SDS011;51893;59.754;10.110;2022-12-11T14:42:10;8.70;;;3.90;;
65289;SDS011;51893;59.754;10.110;2022-12-11T14:44:53;6.80;;;4.30;;
65289;SDS011;51893;59.754;10.110;2022-12-11T14:47:31;4.40;;;3.20;;
65289;SDS011;51893;59.754;10.110;2022-12-11T14:50:30;7.20;;;3.40;;
65289;SDS011;51893;59.754;10.110;2022-12-11T14:53:28;5.30;;;3.00;;
65289;SDS011;51893;59.754;10.110;2022-12-11T14:56:14;5.40;;;2.30;;
65289;SDS011;51893;59.754;10.110;2022-12-11T14:58:49;5.00;;;2.70;;
65289;SDS011;51893;59.754;10.110;2022-12-11T15:01:35;7.80;;;4.10;;
65289;SDS011;51893;59.754;10.110;2022-12-11T15:06:53;13.70;;;4.70;;
65289;SDS011;51893;59.754;10.110;2022-12-11T15:11:58;16.80;;;4.70;;
65289;SDS011;51893;59.754;10.110;2022-12-11T15:14:46;13.00;;;5.00;;
65289;SDS011;51893;59.754;10.110;2022-12-11T15:17:19;12.40;;;3.60;;
65289;SDS011;51893;59.754;10.110;2022-12-11T15:20:05;16.00;;;5.80;;
65289;SDS011;51893;59.754;10.110;2022-12-11T15:22:37;11.40;;;3.90;;
65289;SDS011;51893;59.754;10.110;2022-12-11T15:25:26;11.30;;;3.00;;
65289;SDS011;51893;59.754;10.110;2022-12-11T15:27:57;10.40;;;5.20;;
65289;SDS011;51893;59.754;10.110;2022-12-11T15:30:32;12.20;;;5.60;;
65289;SDS011;51893;59.754;10.110;2022-12-11T15:35:55;6.30;;;3.30;;
65289;SDS011;51893;59.754;10.110;2022-12-11T15:38:38;8.20;;;4.70;;
65289;SDS011;51893;59.754;10.110;2022-12-11T15:41:15;9.80;;;4.60;;
65289;SDS011;51893;59.754;10.110;2022-12-11T15:43:47;8.80;;;3.60;;
65289;SDS011;51893;59.754;10.110;2022-12-11T15:46:24;11.00;;;4.70;;
65289;SDS011;51893;59.754;10.110;2022-12-11T15:48:54;6.10;;;3.30;;
65289;SDS011;51893;59.754;10.110;2022-12-11T15:51:22;5.60;;;3.80;;
65289;SDS011;51893;59.754;10.110;2022-12-11T15:53:49;7.20;;;3.50;;
65289;SDS011;51893;59.754;10.110;2022-12-11T15:56:16;3.00;;;2.00;;
65289;SDS011;51893;59.754;10.110;2022-12-11T15:58:45;10.00;;;4.10;;
65289;SDS011;51893;59.754;10.110;2022-12-11T16:01:14;11.00;;;4.10;;
65289;SDS011;51893;59.754;10.110;2022-12-11T16:03:42;8.20;;;2.00;;
65289;SDS011;51893;59.754;10.110;2022-12-11T16:06:12;2.30;;;2.00;;
65289;SDS011;51893;59.754;10.110;2022-12-11T16:08:39;8.00;;;3.50;;
65289;SDS011;51893;59.754;10.110;2022-12-11T16:11:06;8.50;;;4.00;;
65289;SDS011;51893;59.754;10.110;2022-12-11T16:13:35;4.50;;;2.20;;
65289;SDS011;51893;59.754;10.110;2022-12-11T16:16:03;3.90;;;2.70;;
65289;SDS011;51893;59.754;10.110;2022-12-11T16:18:33;9.60;;;4.20;;
65289;SDS011;51893;59.754;10.110;2022-12-11T16:21:04;6.70;;;3.90;;
65289;SDS011;51893;59.754;10.110;2022-12-11T16:23:33;7.00;;;4.20;;
65289;SDS011;51893;59.754;10.110;2022-12-11T16:26:05;8.40;;;4.50;;
65289;SDS011;51893;59.754;10.110;2022-12-11T16:28:34;9.30;;;4.40;;
65289;SDS011;51893;59.754;10.110;2022-12-11T16:31:02;15.70;;;7.50;;
65289;SDS011;51893;59.754;10.110;2022-12-11T16:33:29;9.20;;;4.90;;
65289;SDS011;51893;59.754;10.110;2022-12-11T16:35:57;7.20;;;3.60;;
65289;SDS011;51893;59.754;10.110;2022-12-11T16:38:30;8.30;;;4.90;;
65289;SDS011;51893;59.754;10.110;2022-12-11T16:41:01;8.40;;;4.40;;
65289;SDS011;51893;59.754;10.110;2022-12-11T16:43:31;4.90;;;2.80;;
65289;SDS011;51893;59.754;10.110;2022-12-11T16:46:01;15.80;;;6.60;;
65289;SDS011;51893;59.754;10.110;2022-12-11T16:48:28;12.80;;;5.70;;
65289;SDS011;51893;59.754;10.110;2022-12-11T16:50:55;9.80;;;4.80;;
65289;SDS011;51893;59.754;10.110;2022-12-11T16:53:23;9.50;;;5.30;;
65289;SDS011;51893;59.754;10.110;2022-12-11T16:55:51;7.10;;;3.90;;